Time;durP1;ratioP1;P1;durP2;ratioP2;P2;SDS_P1;SDS_P2;PMS_P1;PMS_P2;Temp;Humidity;BMP_temperature;BMP_pressure;BME280_temperature;BME280_humidity;BME280_pressure;Samples;Min_cycle;Max_cycle;Signal;HPM_P1;HPM_P2
2021/05/14 00:00:43;;;;;;;0.73;0.73;;;;;;;;;;5072971;28;20016;-47
2021/05/14 00:03:09;;;;;;;0.80;0.80;;;;;;;;;;5073078;28;20066;-47
2021/05/14 00:05:36;;;;;;;1.20;1.13;;;;;;;;;;5073317;28;20025;-47
2021/05/14 00:08:05;;;;;;;0.70;0.70;;;;;;;;;;5084599;28;20027;-47
2021/05/14 00:10:32;;;;;;;2.75;0.82;;;;;;;;;;5094039;28;20024;-47
2021/05/14 00:12:58;;;;;;;0.70;0.70;;;;;;;;;;5091894;28;20077;-47
2021/05/14 00:15:24;;;;;;;3.70;0.77;;;;;;;;;;5093482;28;20362;-48
2021/05/14 00:17:51;;;;;;;2.90;0.90;;;;;;;;;;5093520;28;20024;-48
2021/05/14 00:20:17;;;;;;;0.98;0.80;;;;;;;;;;5093189;28;20084;-47
2021/05/14 00:22:43;;;;;;;1.50;1.00;;;;;;;;;;5093537;28;20063;-47
2021/05/14 00:25:10;;;;;;;1.10;0.77;;;;;;;;;;5093510;28;20058;-47
2021/05/14 00:27:36;;;;;;;0.60;0.60;;;;;;;;;;5093175;28;20069;-47
2021/05/14 00:30:03;;;;;;;1.55;1.00;;;;;;;;;;5093078;28;20055;-49
2021/05/14 00:32:29;;;;;;;1.95;0.82;;;;;;;;;;5093300;28;20349;-48
2021/05/14 00:34:55;;;;;;;5.18;0.80;;;;;;;;;;5093590;28;20119;-48
2021/05/14 00:37:21;;;;;;;1.95;1.08;;;;;;;;;;5093133;28;20035;-48
2021/05/14 00:39:47;;;;;;;0.85;0.80;;;;;;;;;;5093550;28;20315;-48
2021/05/14 00:42:13;;;;;;;0.82;0.80;;;;;;;;;;5092634;28;20438;-47
2021/05/14 00:44:45;;;;;;;2.75;0.90;;;;;;;;;;5093524;28;20231;-47
2021/05/14 00:47:11;;;;;;;0.70;0.70;;;;;;;;;;5092987;28;20036;-48
2021/05/14 00:49:39;;;;;;;1.10;0.95;;;;;;;;;;5093438;28;20039;-48
2021/05/14 00:52:06;;;;;;;1.00;0.80;;;;;;;;;;5092570;28;20514;-48
2021/05/14 00:54:33;;;;;;;1.83;0.90;;;;;;;;;;5093333;28;20036;-48
2021/05/14 00:56:59;;;;;;;1.42;0.95;;;;;;;;;;5092773;28;20070;-47
2021/05/14 00:59:25;;;;;;;1.00;0.90;;;;;;;;;;5093308;28;20059;-48
2021/05/14 01:01:51;;;;;;;1.58;0.88;;;;;;;;;;5093072;28;20028;-48
2021/05/14 01:04:18;;;;;;;1.77;1.00;;;;;;;;;;5093309;28;20103;-48
2021/05/14 01:06:44;;;;;;;1.42;1.05;;;;;;;;;;5092636;28;20036;-48
2021/05/14 01:09:10;;;;;;;1.08;0.88;;;;;;;;;;5072585;28;20028;-49
2021/05/14 01:11:36;;;;;;;2.25;1.00;;;;;;;;;;5072537;28;20062;-48
2021/05/14 01:14:02;;;;;;;1.50;1.05;;;;;;;;;;5074337;28;20032;-48
2021/05/14 01:16:28;;;;;;;1.98;1.10;;;;;;;;;;5076745;28;20028;-48
2021/05/14 01:18:55;;;;;;;1.85;1.25;;;;;;;;;;5076814;28;20021;-48
2021/05/14 01:21:21;;;;;;;1.65;1.08;;;;;;;;;;5076351;28;20032;-48
2021/05/14 01:23:48;;;;;;;3.50;1.30;;;;;;;;;;5076879;28;20055;-48
2021/05/14 01:26:15;;;;;;;0.80;0.80;;;;;;;;;;5076313;28;20116;-48
2021/05/14 01:28:41;;;;;;;4.65;1.13;;;;;;;;;;5093480;28;20031;-48
2021/05/14 01:31:08;;;;;;;1.52;1.23;;;;;;;;;;5096417;28;20469;-48
2021/05/14 01:33:34;;;;;;;1.27;1.17;;;;;;;;;;5096615;28;20048;-48
2021/05/14 01:36:00;;;;;;;1.08;0.98;;;;;;;;;;5096538;28;20061;-48
2021/05/14 01:38:27;;;;;;;4.00;1.08;;;;;;;;;;5096116;28;20357;-48
2021/05/14 01:40:53;;;;;;;1.05;1.00;;;;;;;;;;5096522;28;20478;-48
2021/05/14 01:43:19;;;;;;;1.50;1.02;;;;;;;;;;5079064;28;20044;-47
2021/05/14 01:45:45;;;;;;;6.25;1.75;;;;;;;;;;5076139;28;20024;-48
2021/05/14 01:48:11;;;;;;;1.30;0.82;;;;;;;;;;5076271;28;20033;-47
2021/05/14 01:50:37;;;;;;;2.88;1.45;;;;;;;;;;5076482;28;20029;-48
2021/05/14 01:53:03;;;;;;;1.88;1.00;;;;;;;;;;5095903;28;20020;-47
2021/05/14 01:55:29;;;;;;;1.23;1.00;;;;;;;;;;5096496;28;20039;-47
2021/05/14 01:57:55;;;;;;;2.65;1.17;;;;;;;;;;5096090;28;20115;-47
2021/05/14 02:00:22;;;;;;;1.08;0.98;;;;;;;;;;5095933;28;20027;-48
2021/05/14 02:02:48;;;;;;;2.95;1.25;;;;;;;;;;5095984;28;20028;-47
2021/05/14 02:05:14;;;;;;;6.50;1.10;;;;;;;;;;5096186;28;20107;-47
2021/05/14 02:07:40;;;;;;;1.55;0.95;;;;;;;;;;5095504;28;20457;-47
2021/05/14 02:10:07;;;;;;;2.40;1.17;;;;;;;;;;5094524;28;20024;-47
2021/05/14 02:12:33;;;;;;;5.40;0.80;;;;;;;;;;5096075;28;20040;-47
2021/05/14 02:14:59;;;;;;;0.73;0.73;;;;;;;;;;5095692;28;20068;-47
2021/05/14 02:17:25;;;;;;;2.25;0.93;;;;;;;;;;5095955;28;20032;-47
2021/05/14 02:19:53;;;;;;;1.17;0.90;;;;;;;;;;5095780;28;20360;-47
2021/05/14 02:22:19;;;;;;;3.55;1.20;;;;;;;;;;5095544;28;20487;-47
2021/05/14 02:24:45;;;;;;;1.83;1.00;;;;;;;;;;5095289;28;20028;-47
2021/05/14 02:27:12;;;;;;;0.50;0.50;;;;;;;;;;5087943;28;20107;-47
2021/05/14 02:29:38;;;;;;;1.40;1.05;;;;;;;;;;5094784;28;20020;-47
2021/05/14 02:32:05;;;;;;;1.83;0.80;;;;;;;;;;5095556;28;20118;-47
2021/05/14 02:34:31;;;;;;;1.10;1.05;;;;;;;;;;5095459;28;20043;-47
2021/05/14 02:36:57;;;;;;;1.77;1.30;;;;;;;;;;5095640;28;20476;-47
2021/05/14 02:39:23;;;;;;;1.25;1.15;;;;;;;;;;5094919;28;20486;-47
2021/05/14 02:41:49;;;;;;;1.98;1.45;;;;;;;;;;5094754;28;20114;-48
2021/05/14 02:44:15;;;;;;;1.65;1.38;;;;;;;;;;5095445;28;20028;-48
2021/05/14 02:46:42;;;;;;;0.98;0.85;;;;;;;;;;5094949;28;20035;-48
2021/05/14 02:49:08;;;;;;;1.13;1.00;;;;;;;;;;5095245;28;20028;-47
2021/05/14 02:51:34;;;;;;;3.28;1.30;;;;;;;;;;5095059;28;20103;-47
2021/05/14 02:54:00;;;;;;;1.38;1.25;;;;;;;;;;5095093;28;20103;-48
2021/05/14 02:56:28;;;;;;;1.50;1.13;;;;;;;;;;5095358;28;20522;-48
2021/05/14 02:58:54;;;;;;;2.25;0.90;;;;;;;;;;5095074;28;20103;-48
2021/05/14 03:01:20;;;;;;;0.95;0.95;;;;;;;;;;5094969;28;20039;-48
2021/05/14 03:03:46;;;;;;;3.00;1.02;;;;;;;;;;5094760;28;20028;-48
2021/05/14 03:06:12;;;;;;;1.40;1.30;;;;;;;;;;5095310;28;20020;-48
2021/05/14 03:08:38;;;;;;;1.55;1.08;;;;;;;;;;5078189;28;20123;-48
2021/05/14 03:11:05;;;;;;;2.15;0.95;;;;;;;;;;5074214;28;20387;-47
2021/05/14 03:13:31;;;;;;;1.35;1.00;;;;;;;;;;5074426;28;20032;-47
2021/05/14 03:15:57;;;;;;;9.23;1.55;;;;;;;;;;5074158;28;20058;-47
2021/05/14 03:18:23;;;;;;;0.77;0.77;;;;;;;;;;5074486;28;20023;-47
2021/05/14 03:20:49;;;;;;;2.25;1.20;;;;;;;;;;5074399;28;20028;-47
2021/05/14 03:23:15;;;;;;;0.90;0.80;;;;;;;;;;5074456;28;20355;-47
2021/05/14 03:25:41;;;;;;;1.65;1.10;;;;;;;;;;5074109;28;20029;-47
2021/05/14 03:28:07;;;;;;;1.58;1.00;;;;;;;;;;5086336;28;20461;-47
2021/05/14 03:30:33;;;;;;;1.95;1.13;;;;;;;;;;5093961;28;20066;-48
2021/05/14 03:32:59;;;;;;;3.05;1.23;;;;;;;;;;5094944;28;20051;-48
2021/05/14 03:35:25;;;;;;;1.10;0.95;;;;;;;;;;5094772;28;20064;-48
2021/05/14 03:37:51;;;;;;;1.23;1.13;;;;;;;;;;5093173;28;20441;-48
2021/05/14 03:42:44;;;;;;;1.30;1.20;;;;;;;;;;5094438;28;20070;-49
2021/05/14 03:45:10;;;;;;;1.30;1.00;;;;;;;;;;5094059;28;20487;-48
2021/05/14 03:47:36;;;;;;;3.75;1.17;;;;;;;;;;5094424;28;20035;-48
2021/05/14 03:50:03;;;;;;;2.05;1.25;;;;;;;;;;5093948;28;20111;-48
2021/05/14 03:52:32;;;;;;;0.90;0.90;;;;;;;;;;5094073;28;20020;-48
2021/05/14 03:54:58;;;;;;;1.40;1.10;;;;;;;;;;5093627;28;20042;-47
2021/05/14 03:57:24;;;;;;;1.70;1.20;;;;;;;;;;5093957;28;20461;-47
2021/05/14 03:59:50;;;;;;;1.88;1.02;;;;;;;;;;5093973;28;20106;-48
2021/05/14 04:02:16;;;;;;;1.17;1.02;;;;;;;;;;5093223;28;20055;-47
2021/05/14 04:04:42;;;;;;;1.52;1.15;;;;;;;;;;5093522;28;20066;-47
2021/05/14 04:07:08;;;;;;;4.95;1.33;;;;;;;;;;5093738;28;20466;-47
2021/05/14 04:09:37;;;;;;;3.53;1.10;;;;;;;;;;5093880;28;20085;-47
2021/05/14 04:12:11;;;;;;;2.97;0.95;;;;;;;;;;5093428;28;20089;-48
2021/05/14 04:14:37;;;;;;;1.25;1.15;;;;;;;;;;5093898;28;20032;-48
2021/05/14 04:17:06;;;;;;;1.15;0.90;;;;;;;;;;5093778;28;20445;-47
2021/05/14 04:19:33;;;;;;;1.07;0.97;;;;;;;;;;5093360;28;20053;-47
2021/05/14 04:22:00;;;;;;;2.80;1.00;;;;;;;;;;5093246;28;20263;-47
2021/05/14 04:24:27;;;;;;;0.82;0.80;;;;;;;;;;5093545;28;20024;-47
2021/05/14 04:26:54;;;;;;;1.48;1.30;;;;;;;;;;5093361;28;20030;-47
2021/05/14 04:29:21;;;;;;;1.20;1.00;;;;;;;;;;5092734;28;20036;-47
2021/05/14 04:31:47;;;;;;;1.05;0.90;;;;;;;;;;5093430;28;20024;-48
2021/05/14 04:34:14;;;;;;;7.43;1.00;;;;;;;;;;5093348;28;20034;-48
2021/05/14 04:36:41;;;;;;;0.80;0.80;;;;;;;;;;5093513;28;20032;-48
2021/05/14 04:39:08;;;;;;;1.15;1.02;;;;;;;;;;5082775;28;20020;-47
2021/05/14 04:41:34;;;;;;;0.80;0.80;;;;;;;;;;5093123;28;20027;-47
2021/05/14 04:44:00;;;;;;;1.50;0.98;;;;;;;;;;5093149;28;20020;-48
2021/05/14 04:46:27;;;;;;;2.88;1.33;;;;;;;;;;5093394;28;20028;-47
2021/05/14 04:48:53;;;;;;;1.10;1.00;;;;;;;;;;5092315;28;20035;-47
2021/05/14 04:51:19;;;;;;;2.80;2.05;;;;;;;;;;5090926;28;20063;-47
2021/05/14 04:53:46;;;;;;;5.43;1.23;;;;;;;;;;5091696;28;20032;-47
2021/05/14 04:56:14;;;;;;;1.98;1.13;;;;;;;;;;5091446;28;20039;-47
2021/05/14 04:58:40;;;;;;;2.47;1.30;;;;;;;;;;5090812;28;20027;-47
2021/05/14 05:01:06;;;;;;;2.95;1.40;;;;;;;;;;5090515;28;20028;-47
2021/05/14 05:03:33;;;;;;;2.97;1.30;;;;;;;;;;5091095;28;20021;-47
2021/05/14 05:05:58;;;;;;;1.63;1.30;;;;;;;;;;5090886;28;20035;-47
2021/05/14 05:08:24;;;;;;;3.70;1.50;;;;;;;;;;5075681;28;20016;-47
2021/05/14 05:10:50;;;;;;;4.85;1.30;;;;;;;;;;5068707;28;20493;-47
2021/05/14 05:13:16;;;;;;;2.13;1.33;;;;;;;;;;5083445;28;20020;-47
2021/05/14 05:15:42;;;;;;;4.35;1.20;;;;;;;;;;5089259;28;20044;-47
2021/05/14 05:18:08;;;;;;;1.42;1.20;;;;;;;;;;5089062;28;20030;-47
2021/05/14 05:20:34;;;;;;;1.80;1.10;;;;;;;;;;5088584;28;20012;-48
2021/05/14 05:23:00;;;;;;;2.25;1.50;;;;;;;;;;5089317;28;20105;-47
2021/05/14 05:25:26;;;;;;;3.25;1.30;;;;;;;;;;5090804;28;20035;-47
2021/05/14 05:27:52;;;;;;;2.75;1.38;;;;;;;;;;5090290;28;20430;-47
2021/05/14 05:30:19;;;;;;;1.70;1.30;;;;;;;;;;5089597;28;20123;-47
2021/05/14 05:32:46;;;;;;;1.05;0.95;;;;;;;;;;5090651;28;20027;-47
2021/05/14 05:35:12;;;;;;;2.08;1.00;;;;;;;;;;5090000;28;20461;-48
2021/05/14 05:37:38;;;;;;;4.38;1.17;;;;;;;;;;5090720;28;20024;-47
2021/05/14 05:40:05;;;;;;;4.38;1.35;;;;;;;;;;5090628;28;20081;-47
2021/05/14 05:42:31;;;;;;;1.35;1.25;;;;;;;;;;5090205;28;20035;-47
2021/05/14 05:44:57;;;;;;;2.42;1.50;;;;;;;;;;5090832;28;20441;-48
2021/05/14 05:47:23;;;;;;;4.28;1.30;;;;;;;;;;5090646;28;20369;-47
2021/05/14 05:49:49;;;;;;;2.80;1.38;;;;;;;;;;5090388;28;20131;-47
2021/05/14 05:52:15;;;;;;;7.65;1.88;;;;;;;;;;5090763;28;20043;-48
2021/05/14 05:54:41;;;;;;;5.30;1.80;;;;;;;;;;5090325;28;20108;-47
2021/05/14 05:57:07;;;;;;;3.17;1.33;;;;;;;;;;5090285;28;20139;-48
2021/05/14 05:59:35;;;;;;;3.80;1.50;;;;;;;;;;5090699;28;20023;-48
2021/05/14 06:02:02;;;;;;;1.50;1.40;;;;;;;;;;5093468;28;20024;-48
2021/05/14 06:04:28;;;;;;;3.28;1.10;;;;;;;;;;5094154;28;20472;-47
2021/05/14 06:06:54;;;;;;;1.58;0.85;;;;;;;;;;5092023;28;20024;-47
2021/05/14 06:09:20;;;;;;;4.70;1.10;;;;;;;;;;5075046;28;20033;-48
2021/05/14 06:11:46;;;;;;;1.95;1.00;;;;;;;;;;5093105;28;20501;-47
2021/05/14 06:14:12;;;;;;;1.27;0.93;;;;;;;;;;5093872;28;20143;-46
2021/05/14 06:16:38;;;;;;;1.90;1.13;;;;;;;;;;5093907;28;20032;-47
2021/05/14 06:19:17;;;;;;;2.38;1.40;;;;;;;;;;5093935;28;20042;-46
2021/05/14 06:21:46;;;;;;;5.32;0.98;;;;;;;;;;5093590;28;20028;-47
2021/05/14 06:24:13;;;;;;;1.95;1.40;;;;;;;;;;5093123;28;20035;-47
2021/05/14 06:26:39;;;;;;;0.80;0.70;;;;;;;;;;5093710;28;20032;-47
2021/05/14 06:29:06;;;;;;;2.05;1.63;;;;;;;;;;5093720;28;20032;-48
2021/05/14 06:31:32;;;;;;;6.05;1.50;;;;;;;;;;5093663;28;20020;-50
2021/05/14 06:33:58;;;;;;;1.58;1.27;;;;;;;;;;5093467;28;20055;-48
2021/05/14 06:36:24;;;;;;;2.67;1.42;;;;;;;;;;5093525;28;20049;-47
2021/05/14 06:38:50;;;;;;;4.90;1.35;;;;;;;;;;5093351;28;20099;-47
2021/05/14 06:41:16;;;;;;;2.50;1.55;;;;;;;;;;5092760;28;20153;-47
2021/05/14 06:43:42;;;;;;;2.28;1.75;;;;;;;;;;5093774;28;20020;-48
2021/05/14 06:46:08;;;;;;;2.50;1.50;;;;;;;;;;5093185;28;20027;-47
2021/05/14 06:48:34;;;;;;;2.08;1.55;;;;;;;;;;5093519;28;20059;-48
2021/05/14 06:51:00;;;;;;;6.75;1.40;;;;;;;;;;5093077;28;20081;-47
2021/05/14 06:53:27;;;;;;;1.92;1.42;;;;;;;;;;5093154;28;20484;-47
2021/05/14 06:55:53;;;;;;;1.52;1.20;;;;;;;;;;5092983;28;20036;-47
2021/05/14 06:58:19;;;;;;;1.45;1.35;;;;;;;;;;5093396;28;20024;-47
2021/05/14 07:00:45;;;;;;;1.55;1.25;;;;;;;;;;5092718;28;20077;-46
2021/05/14 07:03:11;;;;;;;1.30;1.20;;;;;;;;;;5092791;28;20016;-46
2021/05/14 07:05:38;;;;;;;2.42;1.58;;;;;;;;;;5092377;28;20442;-47
2021/05/14 07:08:04;;;;;;;1.20;1.10;;;;;;;;;;5092582;28;20024;-46
2021/05/14 07:10:30;;;;;;;3.50;1.08;;;;;;;;;;5091966;28;20028;-46
2021/05/14 07:12:56;;;;;;;1.13;1.05;;;;;;;;;;5092648;28;20019;-47
2021/05/14 07:15:22;;;;;;;7.75;1.33;;;;;;;;;;5092303;28;20518;-46
2021/05/14 07:17:49;;;;;;;2.75;1.08;;;;;;;;;;5092330;28;20020;-46
2021/05/14 07:20:15;;;;;;;1.95;1.60;;;;;;;;;;5091864;28;20024;-46
2021/05/14 07:22:41;;;;;;;1.65;1.30;;;;;;;;;;5091960;28;20027;-47
2021/05/14 07:25:07;;;;;;;2.13;0.82;;;;;;;;;;5092021;28;20467;-46
2021/05/14 07:27:34;;;;;;;0.68;0.68;;;;;;;;;;5091976;28;20051;-48
2021/05/14 07:30:00;;;;;;;1.85;1.25;;;;;;;;;;5091867;28;20031;-46
2021/05/14 07:32:26;;;;;;;1.35;1.25;;;;;;;;;;5091882;28;20031;-47
2021/05/14 07:34:52;;;;;;;1.13;0.95;;;;;;;;;;5091702;28;20020;-47
2021/05/14 07:37:19;;;;;;;0.57;0.55;;;;;;;;;;5091925;28;20107;-47
2021/05/14 07:39:45;;;;;;;2.15;1.20;;;;;;;;;;5092227;28;20020;-46
2021/05/14 07:42:11;;;;;;;0.90;0.90;;;;;;;;;;5091835;28;20043;-47
2021/05/14 07:44:37;;;;;;;1.55;1.10;;;;;;;;;;5092279;28;20024;-46
2021/05/14 07:47:04;;;;;;;2.03;1.10;;;;;;;;;;5091669;28;20020;-48
2021/05/14 07:49:30;;;;;;;0.90;0.68;;;;;;;;;;5091566;28;20023;-47
2021/05/14 07:51:56;;;;;;;1.98;0.68;;;;;;;;;;5091782;28;20024;-47
2021/05/14 07:54:22;;;;;;;3.08;1.05;;;;;;;;;;5091783;28;20093;-47
2021/05/14 07:56:48;;;;;;;3.45;0.63;;;;;;;;;;5086204;28;20075;-47
2021/05/14 07:59:14;;;;;;;0.88;0.88;;;;;;;;;;5091451;28;20016;-47
2021/05/14 08:01:40;;;;;;;0.63;0.60;;;;;;;;;;5091648;28;20346;-47
2021/05/14 08:04:07;;;;;;;0.38;0.38;;;;;;;;;;5091816;28;20016;-47
2021/05/14 08:06:33;;;;;;;1.00;0.75;;;;;;;;;;5072674;28;20017;-47
2021/05/14 08:09:02;;;;;;;0.60;0.57;;;;;;;;;;5071322;28;20055;-46
2021/05/14 08:11:28;;;;;;;0.90;0.80;;;;;;;;;;5071455;28;20016;-46
2021/05/14 08:13:54;;;;;;;0.60;0.60;;;;;;;;;;5080199;28;20070;-47
2021/05/14 08:16:20;;;;;;;1.20;1.10;;;;;;;;;;5091393;28;20074;-47
2021/05/14 08:18:46;;;;;;;0.85;0.80;;;;;;;;;;5089538;28;20031;-46
2021/05/14 08:21:12;;;;;;;0.93;0.73;;;;;;;;;;5089586;28;20050;-47
2021/05/14 08:23:38;;;;;;;0.73;0.60;;;;;;;;;;5088899;28;20012;-47
2021/05/14 08:26:05;;;;;;;0.63;0.45;;;;;;;;;;5089454;28;20043;-47
2021/05/14 08:28:31;;;;;;;7.32;0.88;;;;;;;;;;5089088;28;20023;-47
2021/05/14 08:30:57;;;;;;;2.10;0.90;;;;;;;;;;5090695;28;20023;-47
2021/05/14 08:33:24;;;;;;;0.80;0.73;;;;;;;;;;5089229;28;20027;-47
2021/05/14 08:35:50;;;;;;;0.40;0.40;;;;;;;;;;5089365;28;20051;-47
2021/05/14 08:38:16;;;;;;;0.57;0.57;;;;;;;;;;5089653;28;20365;-47
2021/05/14 08:40:42;;;;;;;1.10;0.85;;;;;;;;;;5089467;28;20442;-47
2021/05/14 08:43:11;;;;;;;1.95;0.88;;;;;;;;;;5089242;28;20132;-47
2021/05/14 08:45:38;;;;;;;3.03;0.93;;;;;;;;;;5089133;28;20032;-47
2021/05/14 08:48:05;;;;;;;1.70;1.35;;;;;;;;;;5088527;28;20146;-47
2021/05/14 08:50:31;;;;;;;1.13;0.82;;;;;;;;;;5089535;28;20449;-47
2021/05/14 08:52:57;;;;;;;0.90;0.82;;;;;;;;;;5089131;28;20442;-47
2021/05/14 08:55:24;;;;;;;2.13;0.90;;;;;;;;;;5090029;28;20235;-48
2021/05/14 08:57:51;;;;;;;2.83;0.70;;;;;;;;;;5089437;28;20503;-47
2021/05/14 09:00:19;;;;;;;0.85;0.40;;;;;;;;;;5089169;28;20429;-47
2021/05/14 09:02:45;;;;;;;0.30;0.30;;;;;;;;;;5088761;28;20035;-47
2021/05/14 09:05:37;;;;;;;0.35;0.35;;;;;;;;;;5085395;28;20252;-47
2021/05/14 09:08:04;;;;;;;0.55;0.55;;;;;;;;;;5084506;28;20667;-47
2021/05/14 09:10:33;;;;;;;0.70;0.70;;;;;;;;;;5085740;28;20023;-48
2021/05/14 09:12:59;;;;;;;1.00;0.63;;;;;;;;;;5085366;28;20100;-47
2021/05/14 09:15:25;;;;;;;0.40;0.40;;;;;;;;;;5088861;28;20033;-46
2021/05/14 09:18:10;;;;;;;0.60;0.60;;;;;;;;;;5088990;28;20028;-47
2021/05/14 09:20:38;;;;;;;0.40;0.40;;;;;;;;;;5088639;28;20112;-47
2021/05/14 09:23:16;;;;;;;1.35;0.57;;;;;;;;;;5088101;28;20425;-47
2021/05/14 09:25:54;;;;;;;0.57;0.57;;;;;;;;;;5089747;28;20115;-46
2021/05/14 09:28:24;;;;;;;0.47;0.47;;;;;;;;;;5088837;28;20024;-47
2021/05/14 09:31:06;;;;;;;0.40;0.40;;;;;;;;;;5088813;28;20077;-47
2021/05/14 09:33:33;;;;;;;3.83;0.70;;;;;;;;;;5088628;28;20020;-47
2021/05/14 09:36:02;;;;;;;1.48;0.60;;;;;;;;;;5092433;28;20028;-47
2021/05/14 09:38:29;;;;;;;0.50;0.50;;;;;;;;;;5091841;28;20101;-47
2021/05/14 09:40:55;;;;;;;3.60;0.95;;;;;;;;;;5092197;28;20060;-47
2021/05/14 09:43:24;;;;;;;0.65;0.50;;;;;;;;;;5092179;28;20478;-47
2021/05/14 09:45:50;;;;;;;4.85;0.60;;;;;;;;;;5090067;28;20095;-47
2021/05/14 09:48:22;;;;;;;0.68;0.50;;;;;;;;;;5089243;28;20024;-47
2021/05/14 09:50:49;;;;;;;0.52;0.52;;;;;;;;;;5089640;28;20491;-46
2021/05/14 09:53:15;;;;;;;1.20;0.60;;;;;;;;;;5085883;28;20028;-47
2021/05/14 09:55:47;;;;;;;3.72;1.70;;;;;;;;;;5092335;28;20043;-47
2021/05/14 09:58:16;;;;;;;0.68;0.65;;;;;;;;;;5092432;28;20024;-47
2021/05/14 10:00:42;;;;;;;0.77;0.57;;;;;;;;;;5091333;28;20028;-47
2021/05/14 10:03:10;;;;;;;0.40;0.40;;;;;;;;;;5092209;28;20028;-47
2021/05/14 10:05:37;;;;;;;2.80;0.65;;;;;;;;;;5092384;28;20028;-47
2021/05/14 10:08:05;;;;;;;0.50;0.50;;;;;;;;;;5091719;28;20038;-47
2021/05/14 10:10:32;;;;;;;0.73;0.47;;;;;;;;;;5092543;28;20224;-47
2021/05/14 10:12:58;;;;;;;0.50;0.47;;;;;;;;;;5090192;28;20324;-47
2021/05/14 10:15:26;;;;;;;4.53;0.68;;;;;;;;;;5091435;28;20044;-47
2021/05/14 10:17:52;;;;;;;0.40;0.40;;;;;;;;;;5091848;28;20064;-47
2021/05/14 10:20:20;;;;;;;7.13;0.60;;;;;;;;;;5087955;28;20020;-46
2021/05/14 10:22:47;;;;;;;0.40;0.40;;;;;;;;;;5090915;28;20073;-48
2021/05/14 10:25:20;;;;;;;0.85;0.50;;;;;;;;;;5091939;28;20027;-47
2021/05/14 10:27:46;;;;;;;0.75;0.40;;;;;;;;;;5090261;28;20185;-47
2021/05/14 10:30:13;;;;;;;1.30;0.57;;;;;;;;;;5091261;28;20534;-46
2021/05/14 10:32:45;;;;;;;2.83;0.70;;;;;;;;;;5091393;28;20027;-47
2021/05/14 10:35:11;;;;;;;0.40;0.40;;;;;;;;;;5091457;28;20510;-47
2021/05/14 10:37:46;;;;;;;0.40;0.40;;;;;;;;;;5090524;28;20031;-47
2021/05/14 10:40:34;;;;;;;0.55;0.55;;;;;;;;;;5090133;28;20019;-47
2021/05/14 10:43:04;;;;;;;0.40;0.40;;;;;;;;;;5085232;28;20020;-47
2021/05/14 10:45:33;;;;;;;0.40;0.40;;;;;;;;;;5085412;28;20106;-46
2021/05/14 10:47:59;;;;;;;0.35;0.30;;;;;;;;;;5090734;28;20030;-47
2021/05/14 10:50:39;;;;;;;0.40;0.40;;;;;;;;;;5090135;28;20028;-46
2021/05/14 10:53:17;;;;;;;2.93;0.60;;;;;;;;;;5090552;28;20047;-47
2021/05/14 10:55:44;;;;;;;0.50;0.50;;;;;;;;;;5086467;28;20032;-46
2021/05/14 10:58:10;;;;;;;0.40;0.40;;;;;;;;;;5089448;28;20111;-47
2021/05/14 11:00:37;;;;;;;1.10;0.40;;;;;;;;;;5089655;28;20024;-47
2021/05/14 11:03:09;;;;;;;0.45;0.30;;;;;;;;;;5090714;28;20115;-47
2021/05/14 11:05:35;;;;;;;0.55;0.40;;;;;;;;;;5091149;28;20460;-46
2021/05/14 11:08:01;;;;;;;8.25;2.67;;;;;;;;;;5090572;28;20016;-47
2021/05/14 11:10:31;;;;;;;1.02;0.55;;;;;;;;;;5089797;28;20107;-46
2021/05/14 11:12:57;;;;;;;;;;;;;;;;;;5090564;28;20026;-47
2021/05/14 11:15:36;;;;;;;0.40;0.40;;;;;;;;;;5089696;28;20036;-47
2021/05/14 11:18:14;;;;;;;0.40;0.40;;;;;;;;;;5090903;28;20353;-47
2021/05/14 11:20:41;;;;;;;0.40;0.40;;;;;;;;;;5090692;28;20016;-47
2021/05/14 11:23:26;;;;;;;1.02;0.50;;;;;;;;;;5092626;28;20028;-46
2021/05/14 11:25:52;;;;;;;0.40;0.40;;;;;;;;;;5092268;28;20107;-47
2021/05/14 11:28:18;;;;;;;1.35;0.35;;;;;;;;;;5092247;28;20563;-47
2021/05/14 11:30:54;;;;;;;1.25;1.15;;;;;;;;;;5092121;28;20032;-46
2021/05/14 11:33:27;;;;;;;5.63;1.20;;;;;;;;;;5092331;28;20036;-46
2021/05/14 11:35:53;;;;;;;0.73;0.57;;;;;;;;;;5092207;28;20046;-47
2021/05/14 11:38:19;;;;;;;3.65;0.90;;;;;;;;;;5092534;28;20445;-47
2021/05/14 11:40:48;;;;;;;2.20;0.73;;;;;;;;;;5091499;28;20107;-46
2021/05/14 11:43:14;;;;;;;2.42;0.80;;;;;;;;;;5092127;28;20445;-47
2021/05/14 11:45:44;;;;;;;2.13;0.52;;;;;;;;;;5092512;28;20045;-46
2021/05/14 11:48:13;;;;;;;0.90;0.73;;;;;;;;;;5092250;28;20020;-47
2021/05/14 11:50:40;;;;;;;1.27;0.60;;;;;;;;;;5091296;28;20016;-47
2021/05/14 11:53:08;;;;;;;1.98;0.32;;;;;;;;;;5092062;28;20413;-47
2021/05/14 11:55:35;;;;;;;0.65;0.52;;;;;;;;;;5091897;28;20032;-46
2021/05/14 11:58:01;;;;;;;1.95;0.60;;;;;;;;;;5091551;28;20024;-47
2021/05/14 12:00:27;;;;;;;5.43;0.60;;;;;;;;;;5091303;28;20024;-47
2021/05/14 12:02:53;;;;;;;0.60;0.60;;;;;;;;;;5091823;28;20049;-47
2021/05/14 12:05:21;;;;;;;0.68;0.47;;;;;;;;;;5084299;28;20040;-48
2021/05/14 12:07:47;;;;;;;2.63;1.00;;;;;;;;;;5076431;28;20124;-47
2021/05/14 12:10:14;;;;;;;1.98;0.70;;;;;;;;;;5088256;28;20028;-47
2021/05/14 12:12:42;;;;;;;0.57;0.57;;;;;;;;;;5091636;28;20119;-48
2021/05/14 12:15:11;;;;;;;0.50;0.50;;;;;;;;;;5091461;28;20082;-47
2021/05/14 12:17:37;;;;;;;2.08;0.70;;;;;;;;;;5091203;28;20035;-47
2021/05/14 12:20:18;;;;;;;0.60;0.60;;;;;;;;;;5091128;28;20454;-47
2021/05/14 12:22:45;;;;;;;2.83;1.30;;;;;;;;;;5091818;28;20231;-47
2021/05/14 12:25:11;;;;;;;2.33;1.35;;;;;;;;;;5091660;28;20470;-47
2021/05/14 12:27:37;;;;;;;0.50;0.50;;;;;;;;;;5091661;28;20028;-47
2021/05/14 12:30:04;;;;;;;1.13;0.57;;;;;;;;;;5091127;28;20042;-47
2021/05/14 12:32:30;;;;;;;0.68;0.57;;;;;;;;;;5091185;28;20021;-47
2021/05/14 12:34:56;;;;;;;2.55;0.63;;;;;;;;;;5090898;28;20266;-47
2021/05/14 12:37:22;;;;;;;0.68;0.60;;;;;;;;;;5091453;28;20063;-48
2021/05/14 12:39:49;;;;;;;3.28;0.47;;;;;;;;;;5091451;28;20157;-47
2021/05/14 12:42:27;;;;;;;1.75;0.52;;;;;;;;;;5090970;28;20028;-47
2021/05/14 12:44:54;;;;;;;0.43;0.40;;;;;;;;;;5091390;28;20034;-47
2021/05/14 12:47:23;;;;;;;2.42;0.70;;;;;;;;;;5090395;28;20611;-48
2021/05/14 12:49:51;;;;;;;0.70;0.50;;;;;;;;;;5090707;28;20055;-47
2021/05/14 12:52:20;;;;;;;0.45;0.45;;;;;;;;;;5078514;28;20028;-47
2021/05/14 12:54:54;;;;;;;1.38;0.45;;;;;;;;;;5090565;28;20068;-47
2021/05/14 12:57:27;;;;;;;0.30;0.30;;;;;;;;;;5091133;28;20017;-47
2021/05/14 12:59:54;;;;;;;5.90;0.45;;;;;;;;;;5091324;28;20026;-47
2021/05/14 13:02:24;;;;;;;3.08;0.40;;;;;;;;;;5090547;28;20438;-47
2021/05/14 13:04:56;;;;;;;2.00;1.10;;;;;;;;;;5091059;28;20111;-48
2021/05/14 13:07:23;;;;;;;0.88;0.50;;;;;;;;;;5090726;28;20024;-47
2021/05/14 13:09:49;;;;;;;0.93;0.47;;;;;;;;;;5092941;28;20011;-47
2021/05/14 13:12:15;;;;;;;1.15;0.50;;;;;;;;;;5094546;28;20088;-47
2021/05/14 13:14:41;;;;;;;1.55;0.40;;;;;;;;;;5094986;28;20032;-47
2021/05/14 13:17:07;;;;;;;0.52;0.50;;;;;;;;;;5094104;28;20034;-47
2021/05/14 13:19:33;;;;;;;0.35;0.35;;;;;;;;;;5095323;28;20027;-47
2021/05/14 13:21:59;;;;;;;0.38;0.38;;;;;;;;;;5094145;28;20397;-47
2021/05/14 13:24:25;;;;;;;1.45;0.55;;;;;;;;;;5095015;28;20020;-47
2021/05/14 13:26:51;;;;;;;2.10;0.60;;;;;;;;;;5094760;28;20016;-47
2021/05/14 13:29:17;;;;;;;1.85;0.60;;;;;;;;;;5094834;28;20042;-47
2021/05/14 13:31:44;;;;;;;1.23;0.57;;;;;;;;;;5094106;28;20172;-47
2021/05/14 13:34:10;;;;;;;0.73;0.73;;;;;;;;;;5094300;28;20409;-47
2021/05/14 13:36:36;;;;;;;1.08;0.60;;;;;;;;;;5094406;28;20107;-47
2021/05/14 13:39:02;;;;;;;0.60;0.60;;;;;;;;;;5088665;28;20525;-47
2021/05/14 13:41:28;;;;;;;5.35;0.43;;;;;;;;;;5076269;28;20090;-47
2021/05/14 13:43:55;;;;;;;1.02;0.50;;;;;;;;;;5092224;28;20020;-47
2021/05/14 13:46:21;;;;;;;0.75;0.65;;;;;;;;;;5094351;28;20028;-47
2021/05/14 13:48:47;;;;;;;0.93;0.60;;;;;;;;;;5094754;28;20027;-47
2021/05/14 13:51:13;;;;;;;0.55;0.55;;;;;;;;;;5093891;28;20049;-47
2021/05/14 13:53:39;;;;;;;4.45;0.70;;;;;;;;;;5094293;28;20024;-48
2021/05/14 13:56:05;;;;;;;0.47;0.45;;;;;;;;;;5094324;28;20044;-48
2021/05/14 13:58:31;;;;;;;1.15;0.50;;;;;;;;;;5094454;28;20035;-47
2021/05/14 14:00:57;;;;;;;2.38;0.60;;;;;;;;;;5094124;28;20062;-47
2021/05/14 14:03:23;;;;;;;0.32;0.30;;;;;;;;;;5094074;28;20052;-48
2021/05/14 14:05:49;;;;;;;0.60;0.60;;;;;;;;;;5094129;28;20476;-47
2021/05/14 14:08:15;;;;;;;2.90;0.65;;;;;;;;;;5093837;28;20016;-47
2021/05/14 14:10:42;;;;;;;0.40;0.40;;;;;;;;;;5093392;28;20465;-48
2021/05/14 14:13:10;;;;;;;2.28;0.70;;;;;;;;;;5081544;28;20236;-47
2021/05/14 14:15:37;;;;;;;0.60;0.60;;;;;;;;;;5073860;28;20039;-48
2021/05/14 14:18:03;;;;;;;1.02;0.70;;;;;;;;;;5073565;28;20016;-48
2021/05/14 14:20:29;;;;;;;2.38;0.47;;;;;;;;;;5073063;28;20032;-47
2021/05/14 14:22:55;;;;;;;0.38;0.38;;;;;;;;;;5073124;28;20350;-47
2021/05/14 14:25:21;;;;;;;1.38;0.63;;;;;;;;;;5073404;28;20071;-47
2021/05/14 14:27:47;;;;;;;0.50;0.50;;;;;;;;;;5083060;28;20028;-47
2021/05/14 14:30:14;;;;;;;0.45;0.40;;;;;;;;;;5093165;28;20105;-47
2021/05/14 14:32:41;;;;;;;0.52;0.50;;;;;;;;;;5093582;28;20020;-47
2021/05/14 14:35:08;;;;;;;0.30;0.30;;;;;;;;;;5093554;28;20420;-47
2021/05/14 14:37:34;;;;;;;0.30;0.30;;;;;;;;;;5093427;28;20092;-47
2021/05/14 14:40:00;;;;;;;0.75;0.40;;;;;;;;;;5093518;28;20318;-47
2021/05/14 14:42:26;;;;;;;0.43;0.43;;;;;;;;;;5093201;28;20020;-47
2021/05/14 14:44:52;;;;;;;1.35;0.47;;;;;;;;;;5093571;28;20029;-46